createdAt,value
2019-04-19T00:01:02.730Z,16.30
2019-04-19T00:03:34.246Z,16.20
2019-04-19T00:06:28.846Z,16.20
2019-04-19T00:09:12.194Z,16.20
2019-04-19T00:11:39.580Z,16.10
2019-04-19T00:14:02.830Z,16.10
2019-04-19T00:16:53.051Z,16.10
2019-04-19T00:19:45.511Z,16.00
2019-04-19T00:22:18.804Z,15.90
2019-04-19T00:24:35.623Z,15.90
2019-04-19T00:27:11.720Z,15.90
2019-04-19T00:29:53.103Z,15.90
2019-04-19T00:32:36.023Z,15.80
2019-04-19T00:34:57.404Z,15.80
2019-04-19T00:37:33.889Z,15.70
2019-04-19T00:40:31.194Z,15.70
2019-04-19T00:43:05.314Z,15.70
2019-04-19T00:45:58.597Z,15.70
2019-04-19T00:48:29.985Z,15.70
2019-04-19T00:50:56.293Z,15.60
2019-04-19T00:53:27.479Z,15.60
2019-04-19T00:55:57.449Z,15.60
2019-04-19T00:58:29.321Z,15.60
2019-04-19T01:00:57.886Z,15.50
2019-04-19T01:03:34.531Z,15.50
2019-04-19T01:09:30.111Z,15.40
2019-04-19T01:12:15.444Z,15.40
2019-04-19T01:14:45.508Z,15.40
2019-04-19T01:17:34.924Z,15.30
2019-04-19T01:20:02.027Z,15.30
2019-04-19T01:22:38.124Z,15.30
2019-04-19T01:25:27.479Z,15.20
2019-04-19T01:28:10.083Z,15.20
2019-04-19T01:30:47.687Z,15.10
2019-04-19T01:33:38.970Z,15.10
2019-04-19T01:36:24.674Z,15.00
2019-04-19T01:39:22.000Z,15.00
2019-04-19T01:41:56.867Z,14.90
2019-04-19T01:44:42.304Z,14.90
2019-04-19T01:47:42.169Z,15.00
2019-04-19T01:50:17.343Z,15.00
2019-04-19T01:53:04.521Z,15.00
2019-04-19T01:55:44.764Z,15.00
2019-04-19T01:58:18.923Z,14.90
2019-04-19T02:00:52.163Z,15.00
2019-04-19T02:03:24.899Z,14.90
2019-04-19T02:06:01.280Z,14.90
2019-04-19T02:08:27.087Z,14.90
2019-04-19T02:11:44.188Z,14.90
2019-04-19T02:14:12.094Z,14.80
2019-04-19T02:16:51.210Z,14.80
2019-04-19T02:19:19.507Z,14.80
2019-04-19T02:21:48.736Z,14.80
2019-04-19T02:24:27.938Z,14.70
2019-04-19T02:26:59.415Z,14.70
2019-04-19T02:29:29.650Z,14.70
2019-04-19T02:32:17.382Z,14.70
2019-04-19T02:35:09.543Z,14.60
2019-04-19T02:39:05.121Z,14.60
2019-04-19T02:44:10.759Z,14.50
2019-04-19T02:49:24.314Z,14.50
2019-04-19T02:51:43.672Z,14.40
2019-04-19T02:57:22.385Z,14.30
2019-04-19T02:59:59.102Z,14.30
2019-04-19T03:02:42.231Z,14.30
2019-04-19T03:05:10.669Z,14.30
2019-04-19T03:07:11.390Z,14.30
2019-04-19T03:09:44.080Z,14.20
2019-04-19T03:12:36.746Z,14.20
2019-04-19T03:15:04.377Z,14.20
2019-04-19T03:17:44.523Z,14.20
2019-04-19T03:20:18.042Z,14.20
2019-04-19T03:22:49.496Z,14.10
2019-04-19T03:25:22.979Z,14.10
2019-04-19T03:27:55.341Z,14.10
2019-04-19T03:30:35.191Z,14.10
2019-04-19T03:35:43.523Z,14.00
2019-04-19T03:38:14.179Z,14.00
2019-04-19T03:40:46.781Z,13.90
2019-04-19T03:43:42.788Z,13.90
2019-04-19T03:46:08.113Z,13.90
2019-04-19T03:48:39.014Z,13.90
2019-04-19T03:51:08.972Z,13.80
2019-04-19T03:56:19.114Z,13.80
2019-04-19T03:58:30.368Z,13.80
2019-04-19T04:01:02.399Z,13.80
2019-04-19T04:03:37.603Z,13.80
2019-04-19T04:06:06.138Z,13.70
2019-04-19T04:08:47.277Z,13.70
2019-04-19T04:11:34.615Z,13.70
2019-04-19T04:14:26.762Z,13.70
2019-04-19T04:17:10.039Z,13.60
2019-04-19T04:19:41.414Z,13.60
2019-04-19T04:22:20.831Z,13.60
2019-04-19T04:24:56.108Z,13.60
2019-04-19T04:27:51.268Z,13.60
2019-04-19T04:30:19.862Z,13.50
2019-04-19T04:32:57.017Z,13.50
2019-04-19T04:35:30.698Z,13.50
2019-04-19T04:38:04.978Z,13.50
2019-04-19T04:40:25.460Z,13.40
2019-04-19T04:43:09.341Z,13.50
2019-04-19T04:45:59.441Z,13.40
2019-04-19T04:48:32.126Z,13.50
2019-04-19T04:51:21.631Z,13.40
2019-04-19T04:53:39.251Z,13.40
2019-04-19T04:56:17.193Z,13.40
2019-04-19T04:58:49.579Z,13.50
2019-04-19T05:01:32.318Z,13.50
2019-04-19T05:04:10.503Z,13.50
2019-04-19T05:06:46.530Z,13.50
2019-04-19T05:09:19.157Z,13.50
2019-04-19T05:11:46.620Z,13.50
2019-04-19T05:14:21.795Z,13.60
2019-04-19T05:17:03.864Z,13.60
2019-04-19T05:19:28.339Z,13.60
2019-04-19T05:21:56.655Z,13.60
2019-04-19T05:24:33.906Z,13.60
2019-04-19T05:27:11.845Z,13.60
2019-04-19T05:29:26.465Z,13.60
2019-04-19T05:31:54.750Z,13.60
2019-04-19T05:34:44.140Z,13.70
2019-04-19T05:37:12.865Z,13.70
2019-04-19T05:40:08.113Z,13.60
2019-04-19T05:42:42.817Z,13.70
2019-04-19T05:47:44.094Z,13.80
2019-04-19T05:50:26.123Z,13.90
2019-04-19T05:52:48.084Z,13.90
2019-04-19T05:55:06.558Z,14.00
2019-04-19T05:57:53.819Z,14.00
2019-04-19T06:00:25.984Z,14.10
2019-04-19T06:03:09.047Z,14.20
2019-04-19T06:05:51.061Z,14.30
2019-04-19T06:08:05.145Z,14.30
2019-04-19T06:10:33.810Z,14.50
2019-04-19T06:13:04.287Z,14.60
2019-04-19T06:15:55.714Z,14.80
2019-04-19T06:18:38.088Z,15.00
2019-04-19T06:21:19.647Z,15.10
2019-04-19T06:23:54.110Z,15.20
2019-04-19T06:26:53.756Z,15.20
2019-04-19T06:29:06.393Z,15.50
2019-04-19T06:34:42.673Z,16.20
2019-04-19T06:37:06.835Z,16.90
2019-04-19T06:39:33.180Z,17.90
2019-04-19T06:42:09.121Z,18.80
2019-04-19T06:45:00.599Z,19.60
2019-04-19T06:47:24.242Z,20.30
2019-04-19T06:49:45.723Z,20.60
2019-04-19T06:52:26.012Z,21.30
2019-04-19T06:54:53.612Z,21.60
2019-04-19T06:57:30.537Z,21.80
2019-04-19T07:00:12.949Z,22.00
2019-04-19T07:02:45.470Z,21.20
2019-04-19T07:05:46.472Z,20.20
2019-04-19T07:08:54.642Z,19.20
2019-04-19T07:11:00.573Z,18.80
2019-04-19T07:13:46.595Z,18.40
2019-04-19T07:16:40.920Z,18.10
2019-04-19T07:19:13.385Z,18.00
2019-04-19T07:21:48.192Z,18.00
2019-04-19T07:24:30.459Z,17.90
2019-04-19T07:26:52.238Z,18.00
2019-04-19T07:29:08.731Z,18.10
2019-04-19T07:31:41.829Z,18.10
2019-04-19T07:34:30.978Z,18.20
2019-04-19T07:37:03.464Z,18.30
2019-04-19T07:39:49.479Z,18.30
2019-04-19T07:42:19.486Z,18.30
2019-04-19T07:44:47.115Z,18.40
2019-04-19T07:47:30.485Z,18.50
2019-04-19T07:49:59.518Z,18.70
2019-04-19T07:52:40.271Z,18.80
2019-04-19T07:55:12.815Z,18.90
2019-04-19T07:58:12.142Z,18.90
2019-04-19T08:00:54.096Z,19.10
2019-04-19T08:03:25.309Z,19.10
2019-04-19T08:05:55.003Z,19.30
2019-04-19T08:08:45.197Z,19.60
2019-04-19T08:13:58.129Z,20.80
2019-04-19T08:29:07.789Z,25.90
2019-04-19T08:31:29.571Z,26.50
2019-04-19T08:34:08.083Z,27.10
2019-04-19T08:36:43.559Z,27.80
2019-04-19T08:39:30.730Z,28.20
2019-04-19T08:42:08.477Z,27.90
2019-04-19T08:44:38.664Z,28.00
2019-04-19T08:47:34.594Z,27.70
2019-04-19T08:50:13.441Z,28.40
2019-04-19T08:52:50.059Z,28.70
2019-04-19T08:55:36.555Z,28.80
2019-04-19T08:58:07.125Z,28.80
2019-04-19T09:00:59.213Z,29.10
2019-04-19T09:03:19.185Z,29.80
2019-04-19T09:06:26.997Z,29.60
2019-04-19T09:08:48.721Z,30.10
2019-04-19T09:11:24.771Z,30.40
2019-04-19T09:14:05.857Z,30.60
2019-04-19T09:16:43.754Z,30.30
2019-04-19T09:19:33.873Z,30.10
2019-04-19T09:21:41.759Z,30.50
2019-04-19T09:24:15.828Z,31.00
2019-04-19T09:27:07.905Z,30.70
2019-04-19T09:29:45.484Z,30.00
2019-04-19T09:32:06.555Z,30.20
2019-04-19T09:34:46.996Z,31.10
2019-04-19T09:37:36.966Z,31.50
2019-04-19T09:40:03.074Z,31.20
2019-04-19T09:42:43.475Z,31.70
2019-04-19T09:45:10.492Z,32.30
2019-04-19T09:47:46.151Z,32.50
2019-04-19T09:50:41.655Z,31.60
2019-04-19T09:53:28.574Z,31.30
2019-04-19T09:55:49.675Z,32.30
2019-04-19T09:58:21.156Z,32.70
2019-04-19T10:00:38.971Z,33.20
2019-04-19T10:03:23.146Z,33.30
2019-04-19T10:05:46.980Z,33.00
2019-04-19T10:08:21.751Z,32.50
2019-04-19T10:11:01.054Z,32.50
2019-04-19T10:13:32.132Z,32.40
2019-04-19T10:16:22.234Z,32.70
2019-04-19T10:19:01.313Z,31.90
2019-04-19T10:21:40.439Z,32.50
2019-04-19T10:24:27.688Z,32.20
2019-04-19T10:27:26.964Z,32.50
2019-04-19T10:30:00.046Z,33.30
2019-04-19T10:32:38.485Z,32.40
2019-04-19T10:35:11.548Z,32.90
2019-04-19T10:37:45.991Z,33.90
2019-04-19T10:40:19.502Z,33.50
2019-04-19T10:42:53.469Z,33.80
2019-04-19T10:45:27.939Z,34.20
2019-04-19T10:48:05.067Z,34.20
2019-04-19T10:50:47.469Z,34.40
2019-04-19T10:53:22.129Z,34.30
2019-04-19T10:56:09.963Z,34.20
2019-04-19T10:58:47.489Z,34.20
2019-04-19T11:01:27.332Z,34.10
2019-04-19T11:04:02.622Z,33.80
2019-04-19T11:06:49.448Z,33.80
2019-04-19T11:09:24.718Z,34.40
2019-04-19T11:11:59.645Z,34.80
2019-04-19T11:14:44.348Z,34.60
2019-04-19T11:17:20.286Z,35.20
2019-04-19T11:20:17.933Z,35.20
2019-04-19T11:22:35.495Z,35.40
2019-04-19T11:25:06.473Z,35.40
2019-04-19T11:27:37.464Z,35.20
2019-04-19T11:30:17.042Z,34.40
2019-04-19T11:32:52.632Z,34.60
2019-04-19T11:35:27.525Z,35.50
2019-04-19T11:38:00.750Z,35.60
2019-04-19T11:40:44.902Z,35.60
2019-04-19T11:43:16.219Z,35.30
2019-04-19T11:45:51.508Z,35.50
2019-04-19T11:48:43.729Z,35.70
2019-04-19T11:51:14.366Z,36.00
2019-04-19T11:53:48.659Z,35.70
2019-04-19T11:56:46.260Z,35.70
2019-04-19T11:59:45.836Z,36.10
2019-04-19T12:02:18.006Z,36.20
2019-04-19T12:04:48.528Z,35.80
2019-04-19T12:07:19.186Z,35.80
2019-04-19T12:09:50.351Z,35.60
2019-04-19T12:12:21.732Z,35.40
2019-04-19T12:14:55.640Z,34.90
2019-04-19T12:17:29.156Z,35.10
2019-04-19T12:20:05.764Z,35.30
2019-04-19T12:22:37.775Z,35.50
2019-04-19T12:25:09.911Z,35.60
2019-04-19T12:27:55.010Z,35.70
2019-04-19T12:30:29.466Z,35.50
2019-04-19T12:33:03.531Z,35.90
2019-04-19T12:35:37.530Z,35.90
2019-04-19T12:38:12.408Z,36.10
2019-04-19T12:40:50.435Z,35.60
2019-04-19T12:43:23.721Z,35.50
2019-04-19T12:45:59.029Z,34.90
2019-04-19T12:48:33.070Z,35.00
2019-04-19T12:51:09.982Z,35.40
2019-04-19T12:53:41.280Z,35.10
2019-04-19T12:56:13.840Z,34.70
2019-04-19T12:58:46.529Z,34.30
2019-04-19T13:01:24.028Z,33.80
2019-04-19T13:04:10.739Z,33.90
2019-04-19T13:07:26.870Z,34.60
2019-04-19T13:09:59.268Z,35.20
2019-04-19T13:12:32.844Z,35.40
2019-04-19T13:15:54.430Z,34.90
2019-04-19T13:17:58.214Z,34.10
2019-04-19T13:20:44.476Z,34.20
2019-04-19T13:24:02.499Z,34.20
2019-04-19T13:29:25.374Z,34.70
2019-04-19T13:32:02.044Z,34.00
2019-04-19T13:34:39.174Z,33.50
2019-04-19T13:40:30.341Z,34.40
2019-04-19T13:43:09.293Z,35.00
2019-04-19T13:45:46.515Z,34.20
2019-04-19T13:48:20.739Z,33.50
2019-04-19T13:51:32.363Z,33.50
2019-04-19T13:54:09.706Z,33.60
2019-04-19T13:56:48.080Z,31.40
2019-04-19T13:59:35.525Z,29.90
2019-04-19T14:02:06.541Z,29.00
2019-04-19T14:04:41.615Z,28.60
2019-04-19T14:07:15.002Z,28.30
2019-04-19T14:09:49.451Z,28.00
2019-04-19T14:12:29.585Z,27.70
2019-04-19T14:15:05.310Z,27.50
2019-04-19T14:17:42.164Z,27.20
2019-04-19T14:20:31.445Z,27.10
2019-04-19T14:26:51.729Z,26.90
2019-04-19T14:29:19.170Z,26.80
2019-04-19T14:31:54.559Z,26.70
2019-04-19T14:34:35.324Z,26.40
2019-04-19T14:37:48.468Z,26.40
2019-04-19T14:40:00.623Z,26.40
2019-04-19T14:42:43.001Z,26.60
2019-04-19T14:45:17.138Z,26.70
2019-04-19T14:47:57.019Z,26.70
2019-04-19T14:50:47.626Z,26.70
2019-04-19T14:53:15.466Z,26.50
2019-04-19T14:56:00.557Z,26.50
2019-04-19T15:02:00.644Z,26.50
2019-04-19T15:04:44.743Z,26.50
2019-04-19T15:07:18.664Z,26.30
2019-04-19T15:10:35.565Z,26.20
2019-04-19T15:13:26.671Z,26.10
2019-04-19T15:16:16.180Z,26.00
2019-04-19T15:19:08.765Z,26.10
2019-04-19T15:22:15.019Z,26.20
2019-04-19T15:25:37.083Z,26.20
2019-04-19T15:28:27.427Z,26.30
2019-04-19T15:31:14.197Z,26.10
2019-04-19T15:33:48.493Z,26.00
2019-04-19T15:37:22.989Z,26.00
2019-04-19T15:40:12.237Z,26.10
2019-04-19T15:43:17.120Z,26.10
2019-04-19T15:52:05.857Z,25.90
2019-04-19T15:54:57.622Z,26.00
2019-04-19T15:57:50.236Z,26.00
2019-04-19T16:01:07.960Z,25.90
2019-04-19T16:04:03.856Z,25.90
2019-04-19T16:07:50.224Z,25.90
2019-04-19T16:11:17.079Z,25.90
2019-04-19T16:16:05.809Z,25.80
2019-04-19T16:17:27.255Z,25.80
2019-04-19T16:29:05.929Z,25.60
2019-04-19T16:31:47.183Z,25.50
2019-04-19T16:34:25.023Z,25.60
2019-04-19T16:37:45.012Z,25.90
2019-04-19T16:41:29.006Z,26.20
2019-04-19T16:44:07.383Z,26.20
2019-04-19T16:46:47.856Z,26.10
2019-04-19T16:49:20.409Z,25.70
2019-04-19T16:52:02.636Z,25.60
2019-04-19T16:55:01.111Z,25.40
2019-04-19T16:57:31.738Z,25.30
2019-04-19T17:01:44.502Z,25.10
2019-04-19T17:16:21.041Z,25.00
2019-04-19T17:18:56.884Z,25.00
2019-04-19T17:22:13.824Z,25.00
2019-04-19T17:27:41.024Z,25.00
2019-04-19T17:30:36.259Z,24.90
2019-04-19T17:36:03.992Z,24.90
2019-04-19T17:46:10.556Z,24.70
2019-04-19T17:53:00.334Z,24.70
2019-04-19T17:55:47.300Z,24.60
2019-04-19T17:58:19.151Z,24.50
2019-04-19T18:01:20.101Z,24.60
2019-04-19T18:03:59.255Z,24.60
2019-04-19T18:06:44.251Z,24.50
2019-04-19T18:09:22.832Z,24.50
2019-04-19T18:12:21.158Z,24.40
2019-04-19T18:15:05.694Z,24.40
2019-04-19T18:18:12.443Z,24.40
2019-04-19T18:21:16.768Z,24.30
2019-04-19T18:24:45.385Z,24.30
2019-04-19T18:27:22.766Z,24.20
2019-04-19T18:30:01.977Z,24.20
2019-04-19T18:33:33.480Z,24.20
2019-04-19T18:36:20.070Z,24.10
2019-04-19T18:38:58.428Z,24.00
2019-04-19T18:41:45.499Z,24.00
2019-04-19T18:44:41.198Z,24.00
2019-04-19T18:50:04.785Z,23.90
2019-04-19T18:52:48.738Z,23.80
2019-04-19T18:55:16.980Z,23.70
2019-04-19T19:05:05.252Z,23.50
2019-04-19T19:07:49.380Z,23.50
2019-04-19T19:10:41.064Z,23.50
2019-04-19T19:13:24.538Z,23.40
2019-04-19T19:16:02.266Z,23.50
2019-04-19T19:18:45.832Z,23.40
2019-04-19T19:21:33.927Z,23.30
2019-04-19T19:25:12.664Z,23.30
2019-04-19T19:27:44.045Z,23.20
2019-04-19T19:30:38.755Z,23.10
2019-04-19T19:33:23.844Z,23.00
2019-04-19T19:36:03.572Z,22.90
2019-04-19T19:38:50.338Z,22.80
2019-04-19T19:41:40.377Z,22.60
2019-04-19T19:46:54.231Z,22.60
2019-04-19T19:49:49.012Z,22.50
2019-04-19T19:52:44.312Z,22.50
2019-04-19T19:55:24.024Z,22.30
2019-04-19T19:57:55.356Z,22.30
2019-04-19T20:00:34.658Z,22.20
2019-04-19T20:03:34.412Z,22.20
2019-04-19T20:06:31.251Z,22.10
2019-04-19T20:09:24.697Z,22.10
2019-04-19T20:12:17.778Z,22.00
2019-04-19T20:15:04.909Z,21.90
2019-04-19T20:18:44.237Z,21.80
2019-04-19T20:21:45.107Z,21.80
2019-04-19T20:24:58.115Z,21.70
2019-04-19T20:27:33.521Z,21.70
2019-04-19T20:30:08.575Z,21.70
2019-04-19T20:33:00.549Z,21.70
2019-04-19T20:35:52.278Z,21.70
2019-04-19T20:38:30.201Z,21.60
2019-04-19T20:41:00.222Z,21.60
2019-04-19T20:43:50.072Z,21.60
2019-04-19T20:47:16.137Z,21.50
2019-04-19T20:50:42.624Z,21.50
2019-04-19T20:53:32.357Z,21.40
2019-04-19T20:56:48.583Z,21.30
2019-04-19T20:59:18.227Z,21.20
2019-04-19T21:02:18.778Z,21.20
2019-04-19T21:05:24.171Z,21.10
2019-04-19T21:08:12.648Z,21.00
2019-04-19T21:10:57.890Z,21.00
2019-04-19T21:13:38.232Z,20.90
2019-04-19T21:16:16.236Z,20.90
2019-04-19T21:19:04.129Z,20.80
2019-04-19T21:21:33.498Z,20.70
2019-04-19T21:24:18.706Z,20.70
2019-04-19T21:27:25.846Z,20.60
2019-04-19T21:30:00.535Z,20.60
2019-04-19T21:32:34.180Z,20.50
2019-04-19T21:35:12.596Z,20.30
2019-04-19T21:37:48.182Z,20.30
2019-04-19T21:40:29.913Z,20.20
2019-04-19T21:43:02.981Z,20.30
2019-04-19T21:45:47.117Z,20.30
2019-04-19T21:48:24.880Z,20.30
2019-04-19T21:50:57.631Z,20.20
2019-04-19T21:53:56.749Z,20.10
2019-04-19T21:56:33.535Z,20.10
2019-04-19T21:59:07.026Z,20.00
2019-04-19T22:01:51.028Z,20.00
2019-04-19T22:04:45.773Z,19.90
2019-04-19T22:07:14.936Z,19.80
2019-04-19T22:09:49.694Z,19.70
2019-04-19T22:12:24.212Z,19.60
2019-04-19T22:15:01.772Z,19.50
2019-04-19T22:17:38.275Z,19.40
2019-04-19T22:20:14.262Z,19.30
2019-04-19T22:22:43.425Z,19.20
2019-04-19T22:25:31.089Z,19.20
2019-04-19T22:28:12.802Z,19.10
2019-04-19T22:30:54.667Z,19.00
2019-04-19T22:33:28.107Z,18.90
2019-04-19T22:36:06.898Z,18.80
2019-04-19T22:38:50.144Z,18.70
2019-04-19T22:41:26.775Z,18.60
2019-04-19T22:44:01.183Z,18.60
2019-04-19T22:47:03.795Z,18.50
2019-04-19T22:49:40.904Z,18.40
2019-04-19T22:52:12.859Z,18.30
2019-04-19T22:54:48.797Z,18.20
2019-04-19T22:57:34.262Z,18.10
2019-04-19T23:00:05.757Z,18.00
2019-04-19T23:02:58.971Z,17.90
2019-04-19T23:05:45.132Z,17.90
2019-04-19T23:08:27.215Z,17.80
2019-04-19T23:10:59.087Z,17.80
2019-04-19T23:13:27.411Z,17.70
2019-04-19T23:16:11.557Z,17.60
2019-04-19T23:18:48.119Z,17.60
2019-04-19T23:21:26.454Z,17.50
2019-04-19T23:24:01.301Z,17.40
2019-04-19T23:26:57.362Z,17.40
2019-04-19T23:29:02.366Z,17.30
2019-04-19T23:31:59.354Z,17.20
2019-04-19T23:35:02.272Z,17.10
2019-04-19T23:38:07.301Z,16.90
2019-04-19T23:40:46.402Z,16.80
2019-04-19T23:43:26.336Z,16.70
2019-04-19T23:46:18.415Z,16.70
2019-04-19T23:55:00.169Z,16.50
2019-04-19T23:57:39.529Z,16.50
